-18.43C
пасмурно
пасмурно
Дата и времяТемператураДавление, мм рт.ст.Влажность, %Осадки
МинимумМаксимум
07.12.2022 08:00-18.39C-17.06C77496пасмурно
07.12.2022 11:00-17.57C-16.82C77395пасмурно
07.12.2022 14:00-15.63C-15.63C77194пасмурно
07.12.2022 17:00-15.13C-15.13C77093пасмурно
07.12.2022 20:00-14.9C-14.9C76894пасмурно
07.12.2022 23:00-16.11C-16.11C76894пасмурно
08.12.2022 02:00-16.63C-16.63C76693пасмурно
08.12.2022 05:00-15.85C-15.85C76591пасмурно
08.12.2022 08:00-15.23C-15.23C76490пасмурно
08.12.2022 11:00-14.24C-14.24C76395небольшой снег
08.12.2022 14:00-13.28C-13.28C76394небольшой снег
08.12.2022 17:00-13.12C-13.12C76394небольшой снег
08.12.2022 20:00-12.97C-12.97C76394небольшой снег
08.12.2022 23:00-13.44C-13.44C76395небольшой снег
09.12.2022 02:00-13.6C-13.6C76295пасмурно
09.12.2022 05:00-13.44C-13.44C76295пасмурно
09.12.2022 08:00-13.05C-13.05C76294небольшой снег
09.12.2022 11:00-12.22C-12.22C76295небольшой снег
09.12.2022 14:00-18.76C-18.76C76591небольшой снег
09.12.2022 17:00-28.94C-28.94C76793облачно с прояснениями
09.12.2022 20:00-32.05C-32.05C76894ясно
09.12.2022 23:00-32.3C-32.3C76894ясно
10.12.2022 02:00-32.77C-32.77C76897ясно
10.12.2022 05:00-30.56C-30.56C76898переменная облачность
10.12.2022 08:00-29.07C-29.07C76898пасмурно
10.12.2022 11:00-24.57C-24.57C76898пасмурно
10.12.2022 14:00-20.87C-20.87C76992пасмурно
10.12.2022 17:00-21.1C-21.1C77196пасмурно
10.12.2022 20:00-23.05C-23.05C77297пасмурно
10.12.2022 23:00-26.63C-26.63C77499пасмурно
11.12.2022 02:00-28.62C-28.62C77599переменная облачность
11.12.2022 05:00-31.23C-31.23C77799небольшая облачность
11.12.2022 08:00-32.89C-32.89C779100небольшая облачность
11.12.2022 11:00-30.69C-30.69C78098небольшая облачность
11.12.2022 14:00-30.11C-30.11C78099небольшая облачность
11.12.2022 17:00-31.09C-31.09C78199небольшая облачность
11.12.2022 20:00-29.11C-29.11C78099облачно с прояснениями
11.12.2022 23:00-26.3C-26.3C77797облачно с прояснениями
12.12.2022 02:00-21.86C-21.86C77491пасмурно
12.12.2022 05:00-17.64C-17.64C76995небольшой снег
Дата и время наблюдения: 07.12.2022 05:32:25